x

South Kodiak - 310nm Ssw Of Kodiak, Ak (46066) Wave Buoy

8:50pm - Sat 21st Jan 2017 All times are UTC.

  • Sig Wave height 11.8ft
  • Swell Direction
  • Peak Period 10s
  • Average Period 7s
  • Wind
    25mph, 31mph gusts
  • Sea Temp 40°f
  • Air Temp 29°f
  • Sea Pressure 1006.5mb

More Historic Weather Station data

Upgrade to MSW Pro to gain access to the past 30 days of data for over 8000 Wavebouys and Weather Stations around the globe.

Join Pro

Comparision Forecast

View Surf forecast
   
Sat 01/21 8:50pm 12ft 10s 7s 25 31 mph 1006.5mb 40f 29f
7:50pm 12ft 11s 7s 25 29 mph 1006.1mb 40f 29f
6:50pm 12.5ft 10s 7s 25 29 mph 1005.5mb 40f 26f
5:50pm 12ft 9s 7s 29 34 mph 1004.4mb 40f 28f
4:50pm 12.5ft 10s 8s 22 31 mph 1003.9mb 40f 30f
3:50pm 12.5ft 10s 8s 22 29 mph 1003.3mb 40f 30f
2:50pm 12.5ft 10s 8s 25 29 mph 1003.2mb 40f 30f
1:50pm 11ft 9s 7s 22 27 mph 1003.1mb 40f 30f
12:50pm 12ft 11s 7s 25 31 mph 1002.7mb 40f 31f
11:50am 11.5ft 8s 7s 27 36 mph 1002.3mb 40f 31f
10:50am 12ft 11s 7s 31 36 mph 1001.8mb 40f 31f
9:50am 12ft 11s 7s 31 36 mph 1001.1mb 40f 32f
8:50am 10.5ft 12s 7s 29 34 mph 1000.9mb 40f 30f
7:50am 10ft 11s 7s 29 36 mph 1000.2mb 40f 30f
6:50am 10.5ft 13s 8s 22 27 mph 999.4mb 40f 32f
5:50am 11ft 10s 8s 13 20 mph 999.2mb 40f 31f
4:50am 11.5ft 13s 8s 9 13 mph 999.2mb 40f 33f
3:50am 11ft 11s 8s 11 18 mph 999.4mb 40f 33f
2:50am 11ft 13s 8s 11 18 mph 999.3mb 40f 35f
1:50am 10.5ft 13s 8s 16 18 mph 999.3mb 40f 34f
12:50am 11ft 14s 8s 18 22 mph 999.2mb 40f 34f
Fri 01/20 11:50pm 10ft 14s 8s 13 16 mph 999.6mb 40f 35f
10:50pm  -   -   -  9 11 mph 1000.1mb 40f 31f
9:50pm 9ft 12s 8s 16 18 mph 1000.1mb 40f 36f
8:50pm 10ft 15s 8s 13 18 mph 1000.3mb 40f 36f
7:50pm 10ft 15s 8s 11 13 mph 1000.4mb 40f 34f
6:50pm 10ft 15s 8s 16 20 mph 1000.1mb 40f 35f
5:50pm 9ft 16s 8s 16 22 mph 1000mb 40f 35f
4:50pm 10.5ft 16s 9s 11 16 mph 999.8mb 40f 36f
3:50pm 9ft 15s 8s 16 20 mph 999.6mb 40f 36f
2:50pm 9ft 15s 9s 9 16 mph 999.9mb 40f 35f
1:50pm 10ft 16s 9s 11 18 mph 1000.2mb 40f 36f
12:50pm 9.5ft 17s 9s 13 18 mph 1000.4mb 40f 34f
11:50am 9ft 9s 8s 11 16 mph 1000.6mb 40f 35f
10:50am 9ft 19s 8s 9 13 mph 1000.7mb 40f 34f
9:50am 8ft 10s 7s 18 22 mph 1000.5mb 40f 34f
8:50am 8.5ft 9s 8s 13 20 mph 1000.3mb 40f 35f
7:50am 8ft 8s 7s 16 20 mph 1000mb 40f 35f
6:50am 8.5ft 9s 7s 16 18 mph 999.6mb 40f 37f
5:50am 8ft 9s 7s 13 16 mph 999.3mb 40f 37f
4:50am 9ft 8s 7s 13 16 mph 999mb 40f 37f
3:50am 10ft 8s 8s 13 18 mph 998.7mb 40f 37f
2:50am 10ft 14s 7s 13 16 mph 998.3mb 40f 37f
1:50am 10ft 14s 7s 13 20 mph 997.9mb 40f 37f
12:50am 10.5ft 13s 7s 16 20 mph 997mb 40f 37f
Thu 01/19 11:50pm 10ft 14s 8s 16 18 mph 996.8mb 40f 37f
10:50pm 10ft 13s 8s 13 20 mph 997mb 40f 36f
9:50pm 10ft 15s 8s 16 20 mph 996.6mb 40f 36f
8:50pm 9.5ft 15s 7s 16 20 mph 996.4mb 40f 36f
7:50pm 10ft 14s 7s 20 27 mph 995.3mb 40f 36f
6:50pm 9.5ft 15s 7s 20 25 mph 994.3mb 40f 36f
5:50pm 9.5ft 14s 7s 20 27 mph 993.5mb 40f 36f
4:50pm 9.5ft 15s 7s 20 25 mph 992.7mb 40f 35f
3:50pm 10ft 14s 8s 20 27 mph 992.3mb 40f 35f
2:50pm 10ft 14s 8s 20 25 mph 991.9mb 40f 34f
1:50pm 10.5ft 15s 8s 20 25 mph 991.8mb 40f 34f
12:50pm 10ft 14s 7s 22 27 mph 991.6mb 40f 33f
11:50am 11.5ft 14s 8s 20 27 mph 991.4mb 40f 33f
10:50am 12ft 13s 8s 20 25 mph 991.6mb 40f 33f
9:50am 11ft 15s 8s 22 27 mph 991.5mb 40f 32f
8:50am 11ft 15s 8s 20 27 mph 991.7mb 40f 32f
7:50am 11ft 16s 8s 20 27 mph 992mb 40f 32f
6:50am 11.5ft 15s 8s 22 29 mph 991.9mb 40f 32f
5:50am 10.5ft 16s 7s 22 29 mph 992mb 40f 32f
4:50am 10.5ft 8s 7s 22 27 mph 992.1mb 40f 32f
3:50am 10ft 8s 7s 20 27 mph 992.5mb 40f 32f
2:50am 11ft 8s 7s 22 29 mph 992.2mb 40f 32f
1:50am 10ft 8s 6s 25 31 mph 991.7mb 40f 32f
12:50am 11.5ft 8s 7s 25 29 mph 991.8mb 40f 32f
Wed 01/18 11:50pm 12ft 9s 7s 25 29 mph 992.1mb 40f 33f
10:50pm 12ft 8s 7s 25 29 mph 992.2mb 40f 34f
9:50pm 11.5ft 9s 7s 25 31 mph 992.2mb 40f 33f
8:50pm 13ft 9s 7s 27 34 mph 991.6mb 40f 33f
7:50pm 14.5ft 9s 7s 29 38 mph 990.3mb 40f 33f
6:50pm 14.5ft 9s 7s 31 38 mph 989.2mb 40f 33f
5:50pm 13.5ft 8s 7s 31 38 mph 987.7mb 40f 34f
4:50pm 12.5ft 8s 7s 31 38 mph 986.4mb 40f 35f
3:50pm 12ft 8s 7s 29 36 mph 985.6mb 40f 35f
2:50pm 11ft 9s 7s 27 34 mph 984.2mb 40f 37f
1:50pm 12ft 9s 7s 25 29 mph 983.2mb 40f 38f
12:50pm 11.5ft 9s 7s 22 27 mph 982.3mb 40f 38f
11:50am 13ft 9s 7s 25 29 mph 981.3mb 40f 37f
10:50am 12ft 8s 7s 25 29 mph 980.7mb 40f 38f
9:50am 13ft 9s 7s 25 31 mph 979.7mb 40f 38f
8:50am 14ft 8s 7s 27 34 mph 978.7mb 40f 38f
7:50am 13ft 9s 7s 29 34 mph 977.7mb 40f 38f
6:50am 14.5ft 9s 7s 29 36 mph 976.9mb 40f 37f
5:50am 16ft 8s 7s 31 38 mph 976.1mb 40f 37f
4:50am 16.5ft 9s 8s 31 38 mph 975.3mb 40f 37f
3:50am 15.5ft 9s 7s 34 40 mph 974.7mb 40f 37f
2:50am 14ft 9s 7s 34 43 mph 974.2mb 40f 36f
1:50am 14ft 9s 7s 36 40 mph 974.1mb 40f 36f
12:50am 13ft 8s 7s 36 40 mph 974mb 40f 36f
Tue 01/17 11:50pm 12ft 8s 7s 34 45 mph 974.4mb 40f 35f
10:50pm 13ft 8s 7s 36 43 mph 974.9mb 40f 35f
9:50pm 10.5ft 8s 6s 34 40 mph 976mb 40f 35f